Southport, Connecticut
Current Conditions -  °F | °C
As of 7:52 AM on Friday 19 Dec 2014 (Local Time) from KBDR Reporting Station
Overcast Overcast  
Wind Chill: 33°   Ceiling: 3900
Heat Index: 37°   Visibility: 10mi
Dew Point: 26°   Wind: 5mph
Humidity: 65%   Direction: 330°NNW
Pressure: 30"   Gusts: NA
Location:  41.14°N, 73.28°W
Report Text: KBDR 191252Z 33004KT 10SM OVC039 03/M03 A3000 RMK AO2 SLP159 T00281033
Loading
Personal Weather Stations






























Interactive Weather Map New forecast layout! Learn more

10-Day Weather Forecast

Advertisements
Track Severe Weather on mobile